Time;durP1;ratioP1;P1;durP2;ratioP2;P2;SDS_P1;SDS_P2;PMS_P1;PMS_P2;Temp;Humidity;BMP_temperature;BMP_pressure;BME280_temperature;BME280_humidity;BME280_pressure;Samples;Min_cycle;Max_cycle;Signal;HPM_P1;HPM_P2
2022/12/03 00:02:04;;;;;;;46.00;32.83;;;-2.20;99.90;-3.30;101669;;;;565789;251;24122;-79
2022/12/03 00:04:31;;;;;;;48.67;32.83;;;-2.10;99.90;-3.30;101669;;;;576257;246;24123;-77
2022/12/03 00:06:59;;;;;;;46.43;31.97;;;-2.10;99.90;-3.20;101660;;;;576208;246;24097;-75
2022/12/03 00:09:27;;;;;;;54.17;32.87;;;-2.10;99.90;-3.20;101668;;;;565406;251;24147;-80
2022/12/03 00:11:55;;;;;;;52.63;34.83;;;-2.10;99.90;-3.20;101667;;;;575899;246;24120;-76
2022/12/03 00:14:23;;;;;;;48.23;33.53;;;-2.10;99.90;-3.20;101664;;;;584502;246;24071;-77
2022/12/03 00:16:51;;;;;;;54.97;32.07;;;-2.10;99.90;-3.30;101662;;;;575476;246;24098;-77
2022/12/03 00:19:19;;;;;;;46.87;31.50;;;-2.10;99.90;-3.30;101668;;;;564957;251;24131;-77
2022/12/03 00:21:47;;;;;;;48.67;32.60;;;-2.20;99.90;-3.30;101665;;;;575826;246;24360;-76
2022/12/03 00:24:15;;;;;;;47.97;31.13;;;-2.20;99.90;-3.30;101665;;;;564657;251;24125;-78
2022/12/03 00:26:43;;;;;;;46.60;29.80;;;-2.20;99.90;-3.30;101657;;;;575309;246;24090;-77
2022/12/03 00:29:11;;;;;;;49.85;32.83;;;-2.20;99.90;-3.40;101665;;;;570311;246;35286;-74
2022/12/03 00:31:41;;;;;;;47.17;27.63;;;-2.30;99.90;-3.50;101660;;;;564559;251;24159;-74
2022/12/03 00:34:08;;;;;;;44.87;31.00;;;-2.30;99.90;-3.40;101659;;;;564765;251;24182;-76
2022/12/03 00:36:36;;;;;;;44.57;30.90;;;-2.30;99.90;-3.50;101663;;;;574286;246;24093;-76
2022/12/03 00:39:04;;;;;;;45.23;31.63;;;-2.30;99.90;-3.50;101660;;;;574221;246;24093;-77
2022/12/03 00:41:32;;;;;;;44.97;30.40;;;-2.30;99.90;-3.40;101663;;;;563666;251;24135;-76
2022/12/03 00:44:00;;;;;;;48.97;32.57;;;-2.30;99.90;-3.40;101662;;;;574485;246;24085;-75
2022/12/03 00:46:28;;;;;;;50.73;32.53;;;-2.30;99.90;-3.50;101675;;;;574389;246;24115;-77
2022/12/03 00:48:56;;;;;;;47.47;32.97;;;-2.30;99.90;-3.50;101677;;;;564053;251;24100;-76
2022/12/03 00:51:24;;;;;;;52.77;34.83;;;-2.40;99.90;-3.50;101674;;;;574688;246;24144;-77
2022/12/03 00:53:52;;;;;;;48.37;31.73;;;-2.40;99.90;-3.60;101675;;;;574751;246;24101;-76
2022/12/03 00:56:20;;;;;;;47.00;33.73;;;-2.40;99.90;-3.60;101667;;;;564364;251;24092;-76
2022/12/03 00:58:48;;;;;;;52.13;34.00;;;-2.40;99.90;-3.60;101660;;;;574889;246;24136;-77
2022/12/03 01:01:16;;;;;;;50.93;32.90;;;-2.40;99.90;-3.50;101666;;;;575172;246;24227;-78
2022/12/03 01:03:44;;;;;;;52.93;35.97;;;-2.40;99.90;-3.60;101663;;;;564774;251;24211;-80
2022/12/03 01:06:12;;;;;;;55.97;35.60;;;-2.40;99.90;-3.60;101671;;;;575225;246;24075;-78
2022/12/03 01:08:40;;;;;;;56.77;37.20;;;-2.40;99.90;-3.60;101674;;;;575723;245;25123;-79
2022/12/03 01:11:36;;;;;;;54.20;34.13;;;-2.50;99.90;-3.60;101672;;;;566005;250;24133;-80
2022/12/03 01:13:36;;;;;;;49.07;35.20;;;-2.50;99.90;-3.60;101672;;;;565615;251;24131;-80
2022/12/03 01:16:06;;;;;;;52.90;35.37;;;-2.50;99.90;-3.70;101667;;;;575591;246;24086;-78
2022/12/03 01:18:32;;;;;;;56.50;36.03;;;-2.50;99.90;-3.70;101669;;;;584589;246;24097;-78
2022/12/03 01:20:59;;;;;;;48.27;31.67;;;-2.60;99.90;-3.70;101670;;;;564893;251;24126;-79
2022/12/03 01:23:27;;;;;;;48.13;31.57;;;-2.60;99.90;-3.70;101673;;;;575489;246;24079;-80
2022/12/03 01:25:55;;;;;;;54.43;34.03;;;-2.60;99.90;-3.70;101663;;;;575321;246;24087;-80
2022/12/03 01:28:23;;;;;;;49.67;32.67;;;-2.60;99.90;-3.70;101668;;;;564452;251;24196;-81
2022/12/03 01:33:32;;;;;;;51.57;34.07;;;-2.70;99.90;-3.80;101658;;;;567586;246;24091;-80
2022/12/03 01:36:00;;;;;;;52.27;34.57;;;-2.70;99.90;-3.80;101670;;;;573052;247;24065;-80
2022/12/03 01:38:28;;;;;;;55.97;36.30;;;-2.70;99.90;-3.80;101658;;;;584537;242;24062;-80
2022/12/03 01:40:56;;;;;;;49.40;32.37;;;-2.70;99.90;-3.80;101655;;;;584675;242;24099;-80
2022/12/03 01:43:28;;;;;;;48.93;34.37;;;-2.60;99.90;-3.80;101655;;;;593771;242;24113;-82
2022/12/03 01:45:53;;;;;;;57.13;36.47;;;-2.60;99.90;-3.70;101647;;;;591919;242;24044;-80
2022/12/03 01:48:26;;;;;;;51.77;36.33;;;-2.60;99.90;-3.80;101653;;;;584293;242;24097;-80
2022/12/03 01:50:53;;;;;;;55.93;35.30;;;-2.70;99.90;-3.80;101645;;;;583864;242;24048;-77
2022/12/03 01:53:21;;;;;;;54.83;35.47;;;-2.60;99.90;-3.80;101645;;;;592931;242;24126;-76
2022/12/03 01:55:48;;;;;;;54.00;33.27;;;-2.60;99.90;-3.80;101654;;;;572920;247;24107;-76
2022/12/03 01:58:14;;;;;;;53.80;35.83;;;-2.70;99.90;-3.80;101652;;;;574537;246;24098;-79
2022/12/03 02:00:42;;;;;;;54.40;35.13;;;-2.70;99.90;-3.90;101637;;;;583498;246;24185;-78
2022/12/03 02:03:19;;;;;;;57.10;35.00;;;-2.70;99.90;-3.90;101646;;;;564028;251;24112;-77
2022/12/03 02:05:47;;;;;;;52.50;32.87;;;-2.80;99.90;-3.90;101644;;;;572296;251;24130;-78
2022/12/03 02:08:33;;;;;;;58.03;33.33;;;-2.80;99.90;-4.00;101634;;;;563386;251;24165;-76
2022/12/03 02:11:19;;;;;;;44.67;32.13;;;-2.90;99.90;-4.00;101647;;;;553629;251;24125;-78
2022/12/03 02:13:48;;;;;;;54.07;35.67;;;-2.90;99.90;-4.00;101640;;;;574006;246;24120;-77
2022/12/03 02:16:16;;;;;;;49.33;33.17;;;-2.90;99.90;-4.00;101645;;;;574484;246;24089;-78
2022/12/03 02:18:44;;;;;;;51.73;33.77;;;-2.90;99.90;-3.90;101641;;;;564008;251;24116;-76
2022/12/03 02:21:21;;;;;;;52.97;34.77;;;-2.80;99.90;-3.90;101647;;;;585098;242;24101;-77
2022/12/03 02:24:13;;;;;;;49.77;32.90;;;-2.80;99.90;-4.00;101635;;;;576128;245;24108;-76
2022/12/03 02:26:45;;;;;;;52.33;33.27;;;-2.80;99.90;-4.00;101646;;;;564239;251;24147;-75
2022/12/03 02:29:09;;;;;;;50.70;32.30;;;-2.90;99.90;-4.10;101634;;;;575052;246;24159;-75
2022/12/03 02:31:37;;;;;;;48.77;31.07;;;-2.90;99.90;-4.10;101635;;;;564522;251;24121;-75
2022/12/03 02:34:05;;;;;;;50.37;32.43;;;-2.90;99.90;-4.00;101630;;;;574848;246;24154;-77
2022/12/03 02:36:33;;;;;;;51.67;32.33;;;-2.90;99.90;-4.10;101640;;;;573016;249;24142;-73
2022/12/03 02:39:00;;;;;;;49.07;31.87;;;-2.90;99.90;-4.10;101640;;;;582825;246;25130;-74
2022/12/03 02:44:14;;;;;;;50.73;32.37;;;-3.00;99.90;-4.10;101639;;;;583378;245;24113;-74
2022/12/03 02:46:42;;;;;;;57.83;32.20;;;-3.00;99.90;-4.10;101634;;;;571930;251;24180;-75
2022/12/03 02:49:11;;;;;;;50.27;31.97;;;-2.90;99.90;-4.10;101636;;;;574939;246;24126;-76
2022/12/03 02:51:39;;;;;;;51.47;32.80;;;-3.00;99.90;-4.10;101632;;;;564476;251;24140;-76
2022/12/03 02:54:10;;;;;;;50.07;32.00;;;-3.00;99.90;-4.20;101639;;;;575082;246;24090;-74
2022/12/03 02:56:35;;;;;;;54.43;33.77;;;-3.00;99.90;-4.20;101636;;;;583696;246;24101;-76
2022/12/03 02:59:03;;;;;;;49.77;31.90;;;-3.00;99.90;-4.10;101634;;;;564320;251;24099;-77
2022/12/03 03:01:34;;;;;;;50.67;32.77;;;-3.00;99.90;-4.20;101636;;;;573245;251;25175;-76
2022/12/03 03:03:59;;;;;;;55.90;33.43;;;-3.00;99.90;-4.20;101628;;;;562986;251;24171;-76
2022/12/03 03:06:26;;;;;;;51.20;31.43;;;-3.00;99.90;-4.20;101631;;;;572608;247;24103;-75
2022/12/03 03:08:55;;;;;;;57.03;33.20;;;-3.00;99.90;-4.20;101628;;;;584375;242;24241;-77
2022/12/03 03:11:27;;;;;;;58.60;32.67;;;-3.00;99.90;-4.20;101628;;;;593200;242;24080;-76
2022/12/03 03:13:53;;;;;;;47.03;30.87;;;-3.00;99.90;-4.10;101633;;;;584166;242;24073;-75
2022/12/03 03:16:21;;;;;;;52.93;32.00;;;-3.00;99.90;-4.10;101628;;;;584139;242;24120;-74
2022/12/03 03:18:50;;;;;;;57.97;32.83;;;-3.00;99.90;-4.10;101626;;;;584077;242;24083;-75
2022/12/03 03:21:21;;;;;;;52.77;32.37;;;-3.00;99.90;-4.10;101628;;;;584119;242;24044;-79
2022/12/03 03:23:47;;;;;;;50.37;32.00;;;-3.00;99.90;-4.20;101644;;;;584427;242;24113;-77
2022/12/03 03:26:15;;;;;;;58.57;35.03;;;-3.00;99.90;-4.20;101625;;;;584538;242;24062;-76
2022/12/03 03:28:42;;;;;;;48.87;30.83;;;-3.10;99.90;-4.20;101633;;;;584458;242;24066;-73
2022/12/03 03:31:10;;;;;;;50.17;33.13;;;-3.10;99.90;-4.30;101633;;;;584376;242;24090;-75
2022/12/03 03:33:38;;;;;;;50.47;32.47;;;-3.10;99.90;-4.30;101617;;;;593822;241;24069;-75
2022/12/03 03:36:06;;;;;;;47.60;29.73;;;-3.20;99.90;-4.30;101624;;;;585534;242;24341;-76
2022/12/03 03:38:38;;;;;;;53.67;31.10;;;-3.20;99.90;-4.30;101614;;;;594524;242;24081;-77
2022/12/03 03:41:05;;;;;;;47.20;29.87;;;-3.20;99.90;-4.30;101618;;;;592974;242;24083;-79
2022/12/03 03:43:32;;;;;;;48.57;30.37;;;-3.20;99.90;-4.30;101619;;;;593119;242;24047;-77
2022/12/03 03:45:59;;;;;;;51.90;30.77;;;-3.20;99.90;-4.30;101620;;;;584257;242;24071;-76
2022/12/03 03:48:27;;;;;;;49.70;30.37;;;-3.20;99.90;-4.30;101605;;;;584900;242;24119;-75
2022/12/03 03:50:57;;;;;;;53.70;30.70;;;-3.20;99.90;-4.30;101612;;;;584957;242;24086;-75
2022/12/03 03:53:23;;;;;;;55.67;30.33;;;-3.20;99.90;-4.30;101599;;;;584714;242;24101;-77
2022/12/03 03:55:55;;;;;;;45.00;28.57;;;-3.20;99.90;-4.30;101608;;;;592785;242;24120;-76
2022/12/03 03:58:20;;;;;;;49.97;28.97;;;-3.20;99.90;-4.30;101615;;;;584637;242;24067;-76
2022/12/03 04:00:48;;;;;;;49.57;28.23;;;-3.10;99.90;-4.30;101599;;;;584964;242;24129;-75
2022/12/03 04:03:16;;;;;;;51.07;29.93;;;-3.10;99.90;-4.30;101594;;;;584888;242;25100;-76
2022/12/03 04:05:44;;;;;;;53.30;29.87;;;-3.20;99.90;-4.30;101592;;;;584500;242;24109;-76
2022/12/03 04:08:11;;;;;;;52.50;29.90;;;-3.20;99.90;-4.40;101594;;;;584607;242;24120;-76
2022/12/03 04:13:26;;;;;;;55.23;29.97;;;-3.20;99.90;-4.40;101593;;;;584420;242;24063;-77
2022/12/03 04:15:55;;;;;;;45.77;25.53;;;-3.20;99.90;-4.40;101588;;;;584174;242;24132;-76
2022/12/03 04:23:57;;;;;;;51.93;28.53;;;-3.30;99.90;-4.40;101585;;;;593590;238;24077;-75
2022/12/03 04:29:11;;;;;;;53.60;28.87;;;-3.20;99.90;-4.40;101585;;;;584743;242;24053;-75
2022/12/03 04:37:10;;;;;;;52.60;28.40;;;-3.20;99.90;-4.30;101588;;;;582218;246;24085;-78
2022/12/03 04:39:41;;;;;;;53.60;29.77;;;-3.20;99.90;-4.40;101581;;;;586460;242;24094;-78
2022/12/03 04:42:07;;;;;;;53.23;29.53;;;-3.20;99.90;-4.30;101584;;;;574446;246;24274;-75
2022/12/03 04:44:38;;;;;;;58.13;31.80;;;-3.20;99.90;-4.40;101579;;;;564940;250;24147;-78
2022/12/03 04:47:11;;;;;;;56.47;31.13;;;-3.20;99.90;-4.40;101581;;;;575540;246;24121;-75
2022/12/03 04:49:42;;;;;;;50.97;29.43;;;-3.20;99.90;-4.40;101574;;;;575525;246;24105;-76
2022/12/03 04:52:10;;;;;;;61.10;31.27;;;-3.20;99.90;-4.30;101571;;;;565285;251;24123;-75
2022/12/03 04:54:38;;;;;;;50.23;29.70;;;-3.20;99.90;-4.40;101574;;;;575368;246;24106;-75
2022/12/03 04:57:08;;;;;;;52.13;28.77;;;-3.20;99.90;-4.40;101585;;;;564430;251;24182;-76
2022/12/03 04:59:37;;;;;;;53.93;31.10;;;-3.20;99.90;-4.40;101573;;;;575123;246;24103;-76
2022/12/03 05:02:01;;;;;;;54.63;30.03;;;-3.20;99.90;-4.40;101584;;;;574791;246;24101;-74
2022/12/03 05:04:29;;;;;;;53.63;29.10;;;-3.20;99.90;-4.40;101580;;;;583895;246;24143;-74
2022/12/03 05:06:57;;;;;;;48.03;27.73;;;-3.20;99.90;-4.40;101590;;;;574225;246;24109;-77
2022/12/03 05:09:25;;;;;;;50.63;28.50;;;-3.20;99.90;-4.40;101579;;;;563973;251;24105;-77
2022/12/03 05:11:53;;;;;;;50.03;28.93;;;-3.30;99.90;-4.50;101570;;;;574407;246;24128;-74
2022/12/03 05:14:21;;;;;;;54.43;29.90;;;-3.30;99.90;-4.50;101580;;;;563897;251;24126;-74
2022/12/03 05:16:49;;;;;;;52.20;28.47;;;-3.30;99.90;-4.50;101576;;;;574582;246;24149;-76
2022/12/03 05:19:21;;;;;;;47.43;28.40;;;-3.30;99.90;-4.40;101576;;;;574663;246;24154;-79
2022/12/03 05:21:46;;;;;;;50.97;29.00;;;-3.30;99.90;-4.50;101574;;;;561892;251;24193;-74
2022/12/03 05:24:13;;;;;;;52.27;29.10;;;-3.30;99.90;-4.40;101571;;;;564187;249;25166;-76
2022/12/03 05:26:41;;;;;;;52.33;29.40;;;-3.30;99.90;-4.50;101555;;;;564129;251;24112;-75
2022/12/03 05:29:10;;;;;;;54.13;31.00;;;-3.20;99.90;-4.40;101565;;;;572869;251;24159;-74
2022/12/03 05:31:38;;;;;;;48.97;28.90;;;-3.20;99.90;-4.30;101566;;;;564443;251;24149;-75
2022/12/03 05:34:06;;;;;;;59.33;30.30;;;-3.20;99.90;-4.30;101559;;;;564432;251;24223;-75
2022/12/03 05:36:34;;;;;;;55.53;30.70;;;-3.20;99.90;-4.30;101559;;;;564517;251;24229;-77
2022/12/03 05:39:02;;;;;;;53.73;31.27;;;-3.10;99.90;-4.30;101571;;;;564618;251;25174;-75
2022/12/03 05:44:15;;;;;;;56.07;32.10;;;-3.10;99.90;-4.30;101561;;;;573024;251;24161;-75
2022/12/03 05:46:43;;;;;;;52.93;31.43;;;-3.10;99.90;-4.30;101569;;;;564546;251;24228;-74
2022/12/03 05:49:11;;;;;;;56.33;32.90;;;-3.10;99.90;-4.20;101561;;;;564474;251;24107;-75
2022/12/03 05:51:39;;;;;;;55.50;32.57;;;-3.10;99.90;-4.20;101563;;;;564278;251;24181;-74
2022/12/03 05:54:07;;;;;;;56.07;32.60;;;-3.10;99.90;-4.10;101562;;;;564371;251;24133;-74
2022/12/03 05:56:35;;;;;;;60.83;33.63;;;-3.00;99.90;-4.20;101569;;;;565717;250;24165;-75
2022/12/03 05:59:03;;;;;;;59.53;34.20;;;-3.10;99.90;-4.30;101563;;;;565481;250;24102;-78
2022/12/03 06:01:31;;;;;;;60.80;34.10;;;-3.10;99.90;-4.30;101566;;;;565177;251;24110;-74
2022/12/03 06:03:59;;;;;;;61.20;33.90;;;-3.10;99.90;-4.30;101566;;;;564864;251;24135;-73
2022/12/03 06:06:27;;;;;;;60.60;33.77;;;-3.10;99.90;-4.30;101567;;;;564742;249;24175;-75
2022/12/03 06:08:55;;;;;;;60.40;35.97;;;-3.10;99.90;-4.30;101566;;;;564379;251;24248;-74
2022/12/03 06:11:23;;;;;;;59.73;34.80;;;-3.10;99.90;-4.30;101567;;;;564451;251;24118;-74
2022/12/03 06:13:50;;;;;;;68.65;36.20;;;-3.10;99.90;-4.30;101557;;;;559547;251;35467;-75
2022/12/03 06:16:19;;;;;;;63.80;34.13;;;-3.10;99.90;-4.20;101566;;;;564257;251;24244;-75
2022/12/03 06:18:48;;;;;;;60.30;32.33;;;-3.10;99.90;-4.20;101560;;;;564340;251;24180;-74
2022/12/03 06:21:16;;;;;;;62.40;33.50;;;-3.10;99.90;-4.20;101581;;;;564113;251;24129;-78
2022/12/03 06:23:44;;;;;;;60.63;34.50;;;-3.10;99.90;-4.20;101569;;;;564237;251;24136;-81
2022/12/03 06:26:12;;;;;;;54.80;31.57;;;-3.10;99.90;-4.30;101570;;;;564111;251;24222;-80
2022/12/03 06:28:45;;;;;;;60.77;32.07;;;-3.10;99.90;-4.30;101569;;;;569154;246;35393;-74
2022/12/03 06:31:09;;;;;;;52.37;28.00;;;-3.10;99.90;-4.30;101573;;;;574350;246;24166;-80
2022/12/03 06:33:37;;;;;;;55.53;28.73;;;-3.10;99.90;-4.30;101567;;;;563752;251;24114;-74
2022/12/03 06:36:05;;;;;;;56.63;32.37;;;-3.10;99.90;-4.20;101573;;;;574647;246;24119;-74
2022/12/03 06:38:34;;;;;;;65.33;34.67;;;-3.00;99.90;-4.20;101576;;;;563928;251;24115;-74
2022/12/03 06:41:02;;;;;;;65.97;33.47;;;-3.00;99.90;-4.10;101584;;;;569667;246;38373;-73
2022/12/03 06:43:31;;;;;;;59.53;30.10;;;-3.00;99.90;-4.20;101570;;;;574465;246;25124;-72
2022/12/03 06:45:59;;;;;;;58.33;30.57;;;-3.00;99.90;-4.20;101582;;;;574071;246;24102;-78
2022/12/03 06:48:27;;;;;;;57.17;29.57;;;-3.00;99.90;-4.20;101571;;;;574615;246;24110;-74
2022/12/03 06:50:55;;;;;;;58.13;33.13;;;-3.00;99.90;-4.20;101568;;;;583269;241;24109;-74
2022/12/03 06:53:23;;;;;;;55.10;32.70;;;-3.00;99.90;-4.20;101580;;;;574955;246;24118;-77
2022/12/03 06:55:51;;;;;;;51.03;31.10;;;-3.00;99.90;-4.20;101573;;;;574816;246;24094;-78
2022/12/03 06:58:18;;;;;;;53.83;31.60;;;-2.90;99.90;-4.10;101577;;;;575007;246;24169;-76
2022/12/03 07:00:46;;;;;;;57.30;32.40;;;-2.90;99.90;-4.10;101570;;;;575203;246;24131;-75
2022/12/03 07:03:14;;;;;;;55.83;30.20;;;-2.90;99.90;-4.10;101571;;;;574211;246;24091;-76
2022/12/03 07:05:42;;;;;;;59.27;32.43;;;-2.90;99.90;-4.10;101577;;;;584217;246;24087;-79
2022/12/03 07:08:10;;;;;;;53.47;32.67;;;-3.00;99.90;-4.10;101571;;;;576511;246;24124;-75
2022/12/03 07:10:39;;;;;;;59.13;34.03;;;-3.00;99.90;-4.10;101573;;;;576227;246;24149;-77
2022/12/03 07:13:07;;;;;;;60.90;33.70;;;-3.00;99.90;-4.10;101572;;;;575477;246;24201;-79
2022/12/03 07:15:35;;;;;;;63.53;35.17;;;-3.00;99.90;-4.10;101568;;;;574884;246;24136;-74
2022/12/03 07:18:03;;;;;;;59.60;33.73;;;-2.90;99.90;-4.10;101563;;;;574602;246;24078;-75
2022/12/03 07:20:30;;;;;;;58.13;34.70;;;-2.90;99.90;-4.10;101555;;;;574788;246;24122;-74
2022/12/03 07:22:58;;;;;;;62.73;35.03;;;-2.90;99.90;-4.10;101571;;;;574632;245;24101;-73
2022/12/03 07:25:27;;;;;;;62.80;35.73;;;-2.90;99.90;-4.10;101563;;;;574311;246;24144;-75
2022/12/03 07:27:59;;;;;;;62.47;35.93;;;-2.90;99.90;-4.00;101573;;;;574221;246;24102;-73
2022/12/03 07:30:26;;;;;;;57.67;33.50;;;-2.80;99.90;-4.00;101561;;;;582895;246;24236;-74
2022/12/03 07:32:52;;;;;;;60.00;34.57;;;-2.90;99.90;-4.00;101569;;;;574521;246;24128;-74
2022/12/03 07:35:20;;;;;;;62.03;34.30;;;-2.80;99.90;-4.00;101560;;;;574634;246;24146;-74
2022/12/03 07:37:48;;;;;;;60.77;34.43;;;-2.80;99.90;-4.00;101563;;;;575104;246;24125;-75
2022/12/03 07:40:16;;;;;;;62.53;34.03;;;-2.80;99.90;-3.90;101562;;;;575596;246;24111;-79
2022/12/03 07:42:44;;;;;;;66.67;34.50;;;-2.80;99.90;-3.90;101560;;;;574415;246;24090;-80
2022/12/03 07:45:12;;;;;;;61.87;33.73;;;-2.80;99.90;-4.00;101558;;;;575055;246;24096;-81
2022/12/03 07:47:40;;;;;;;61.63;35.93;;;-2.80;99.90;-4.00;101560;;;;574909;246;24097;-80
2022/12/03 07:50:09;;;;;;;74.50;35.72;;;-2.80;99.90;-4.00;101560;;;;569560;246;35263;-83
2022/12/03 07:52:37;;;;;;;69.17;34.43;;;-2.80;99.90;-3.90;101556;;;;575156;246;24094;-77
2022/12/03 07:55:05;;;;;;;64.23;32.67;;;-2.80;99.90;-3.90;101557;;;;574709;246;25123;-76
2022/12/03 07:57:33;;;;;;;64.43;34.03;;;-2.80;99.90;-3.90;101558;;;;574832;242;24120;-76
2022/12/03 08:00:01;;;;;;;63.83;32.90;;;-2.80;99.90;-3.90;101564;;;;574767;246;24142;-78
2022/12/03 08:02:29;;;;;;;63.27;36.13;;;-2.80;99.90;-3.90;101556;;;;575032;246;24116;-79
2022/12/03 08:04:57;;;;;;;61.70;33.70;;;-2.80;99.90;-3.90;101558;;;;575036;245;24092;-78
2022/12/03 08:07:25;;;;;;;59.73;33.00;;;-2.70;99.90;-3.90;101558;;;;575096;246;24095;-78
2022/12/03 08:09:57;;;;;;;62.23;32.43;;;-2.80;99.90;-3.90;101557;;;;575169;246;24122;-77
2022/12/03 08:12:21;;;;;;;63.60;33.73;;;-2.80;99.90;-3.90;101563;;;;584133;242;24071;-76
2022/12/03 08:14:49;;;;;;;68.60;36.43;;;-2.80;99.90;-3.90;101560;;;;583853;242;24092;-74
2022/12/03 08:17:18;;;;;;;70.70;34.93;;;-2.80;99.90;-3.90;101565;;;;584416;242;24120;-75
2022/12/03 08:19:45;;;;;;;68.63;36.67;;;-2.80;99.90;-3.90;101561;;;;585608;242;24087;-74
2022/12/03 08:22:13;;;;;;;66.77;33.87;;;-2.70;99.90;-3.90;101552;;;;593120;242;24187;-76
2022/12/03 08:24:41;;;;;;;66.13;34.27;;;-2.70;99.90;-3.90;101553;;;;585334;242;24110;-76
2022/12/03 08:27:14;;;;;;;66.43;35.17;;;-2.70;99.90;-3.90;101562;;;;585023;242;24085;-76
2022/12/03 08:29:43;;;;;;;63.90;34.83;;;-2.70;99.90;-3.80;101554;;;;592752;242;24094;-77
2022/12/03 08:32:11;;;;;;;64.80;35.60;;;-2.70;99.90;-3.80;101546;;;;584925;242;24122;-78
2022/12/03 08:34:39;;;;;;;65.23;35.50;;;-2.70;99.90;-3.80;101550;;;;585651;242;24076;-75
2022/12/03 08:37:16;;;;;;;65.83;34.60;;;-2.60;99.90;-3.70;101550;;;;585431;242;24124;-79
2022/12/03 08:39:44;;;;;;;64.00;33.80;;;-2.60;99.90;-3.60;101549;;;;585572;242;24099;-78
2022/12/03 08:42:42;;;;;;;65.77;34.93;;;-2.60;99.90;-3.60;101553;;;;594111;242;24075;-80
2022/12/03 08:45:22;;;;;;;64.00;35.20;;;-2.50;99.90;-3.60;101553;;;;593195;242;24062;-79
2022/12/03 08:47:54;;;;;;;67.27;35.00;;;-2.50;99.90;-3.60;101551;;;;585421;242;24078;-75
2022/12/03 08:50:27;;;;;;;67.40;36.57;;;-2.50;99.90;-3.60;101545;;;;592864;242;24100;-76
2022/12/03 08:52:55;;;;;;;66.60;35.67;;;-2.40;99.90;-3.50;101553;;;;594579;242;24089;-76
2022/12/03 08:55:32;;;;;;;62.27;33.37;;;-2.40;99.90;-3.50;101551;;;;592697;242;24082;-79
2022/12/03 08:58:00;;;;;;;54.43;31.27;;;-2.40;99.90;-3.40;101549;;;;590770;242;24059;-75
2022/12/03 09:00:27;;;;;;;63.90;33.07;;;-2.40;99.90;-3.50;101542;;;;585267;242;24123;-77
2022/12/03 09:02:55;;;;;;;63.60;32.30;;;-2.40;99.90;-3.50;101548;;;;592873;242;24060;-80
2022/12/03 09:05:27;;;;;;;56.47;32.00;;;-2.40;99.90;-3.50;101543;;;;592637;242;24074;-77
2022/12/03 09:07:55;;;;;;;58.10;31.67;;;-2.40;99.90;-3.50;101539;;;;592977;242;25104;-77
2022/12/03 09:10:26;;;;;;;52.10;30.27;;;-2.40;99.90;-3.40;101544;;;;584975;242;24056;-80
2022/12/03 09:12:54;;;;;;;54.90;31.43;;;-2.40;99.90;-3.40;101542;;;;584688;242;24054;-79
2022/12/03 09:15:22;;;;;;;59.13;33.47;;;-2.30;99.90;-3.40;101544;;;;585023;242;24061;-79
2022/12/03 09:17:50;;;;;;;57.63;31.50;;;-2.30;99.90;-3.40;101549;;;;585289;242;24101;-77
2022/12/03 09:20:18;;;;;;;58.57;32.37;;;-2.30;99.90;-3.40;101540;;;;585500;242;24064;-79
2022/12/03 09:22:46;;;;;;;55.93;30.27;;;-2.30;99.90;-3.40;101547;;;;584873;242;24114;-77
2022/12/03 09:25:13;;;;;;;53.77;29.73;;;-2.30;99.90;-3.40;101546;;;;584729;242;24074;-77
2022/12/03 09:27:41;;;;;;;55.33;28.53;;;-2.30;99.90;-3.30;101537;;;;584822;242;24308;-79
2022/12/03 09:30:13;;;;;;;59.30;28.77;;;-2.30;99.90;-3.30;101536;;;;585609;242;24106;-75
2022/12/03 09:32:37;;;;;;;62.47;29.23;;;-2.20;99.90;-3.30;101535;;;;585538;242;24056;-81
2022/12/03 09:35:05;;;;;;;51.97;26.10;;;-2.20;99.90;-3.30;101542;;;;585671;242;24074;-76
2022/12/03 09:37:33;;;;;;;54.37;28.70;;;-2.20;99.90;-3.30;101537;;;;590202;242;24143;-75
2022/12/03 09:40:01;;;;;;;58.33;30.10;;;-2.20;99.90;-3.30;101536;;;;584233;242;24082;-75
2022/12/03 09:42:29;;;;;;;57.93;30.33;;;-2.20;99.90;-3.30;101534;;;;584466;242;24093;-81
2022/12/03 09:44:57;;;;;;;52.30;28.67;;;-2.20;99.90;-3.30;101540;;;;593022;242;24134;-79
2022/12/03 09:47:25;;;;;;;62.63;33.67;;;-2.20;99.90;-3.30;101533;;;;584922;242;24119;-81
2022/12/03 09:49:53;;;;;;;60.43;31.90;;;-2.20;99.90;-3.30;101536;;;;585004;242;24098;-83
2022/12/03 09:52:24;;;;;;;56.50;28.53;;;-2.20;99.90;-3.30;101526;;;;592557;242;24085;-80
2022/12/03 09:54:52;;;;;;;56.60;28.97;;;-2.20;99.90;-3.30;101531;;;;584158;242;24051;-75
2022/12/03 09:57:23;;;;;;;59.80;30.80;;;-2.20;99.90;-3.30;101524;;;;584034;242;24096;-75
2022/12/03 09:59:47;;;;;;;59.97;30.73;;;-2.20;99.90;-3.20;101531;;;;592923;242;24062;-80
2022/12/03 10:02:21;;;;;;;62.47;31.83;;;-2.10;99.90;-3.20;101522;;;;585294;242;24037;-80
2022/12/03 10:04:49;;;;;;;59.53;31.53;;;-2.10;99.90;-3.20;101522;;;;591930;242;25125;-75
2022/12/03 10:07:17;;;;;;;61.00;33.88;;;-2.00;99.90;-3.10;101520;;;;587749;242;35147;-77
2022/12/03 10:09:45;;;;;;;66.63;34.43;;;-2.00;99.90;-3.20;101519;;;;583947;242;24049;-83
2022/12/03 10:12:13;;;;;;;72.63;37.50;;;-2.00;99.90;-3.20;101514;;;;584478;242;24055;-79
2022/12/03 10:14:41;;;;;;;69.43;35.83;;;-2.00;99.90;-3.10;101515;;;;584467;242;24070;-81
2022/12/03 10:17:09;;;;;;;61.87;33.27;;;-2.00;99.90;-3.10;101510;;;;592531;242;24199;-79
2022/12/03 10:19:38;;;;;;;60.27;32.60;;;-2.00;99.90;-3.00;101506;;;;592372;242;24070;-76
2022/12/03 10:22:05;;;;;;;70.10;35.17;;;-1.90;99.90;-3.00;101504;;;;593824;238;24079;-76
2022/12/03 10:24:33;;;;;;;63.27;33.63;;;-1.90;99.90;-3.00;101503;;;;584631;242;24074;-76
2022/12/03 10:27:01;;;;;;;64.07;33.60;;;-1.90;99.90;-3.00;101505;;;;584274;242;24125;-74
2022/12/03 10:29:31;;;;;;;69.13;34.73;;;-1.80;99.90;-3.00;101502;;;;591360;242;24073;-74
2022/12/03 10:32:11;;;;;;;64.07;35.47;;;-1.80;99.90;-3.00;101495;;;;583860;242;24221;-76
2022/12/03 10:34:45;;;;;;;72.30;35.57;;;-1.90;99.90;-2.90;101498;;;;583911;242;24075;-75
2022/12/03 10:37:12;;;;;;;63.00;33.93;;;-1.80;99.90;-2.90;101494;;;;592284;242;24107;-81
2022/12/03 10:39:55;;;;;;;66.80;35.10;;;-1.80;99.90;-2.90;101494;;;;594039;242;24075;-78
2022/12/03 10:42:23;;;;;;;66.67;34.60;;;-1.80;99.90;-2.90;101498;;;;585848;242;24066;-81
2022/12/03 10:44:52;;;;;;;69.20;34.83;;;-1.70;99.90;-2.90;101495;;;;593484;242;24120;-82
2022/12/03 10:47:19;;;;;;;70.43;34.30;;;-1.70;99.90;-2.80;101495;;;;581556;242;24062;-76
2022/12/03 10:49:47;;;;;;;66.90;34.67;;;-1.70;99.90;-2.80;101500;;;;584709;242;24088;-75
2022/12/03 10:52:23;;;;;;;64.60;34.33;;;-1.70;99.90;-2.70;101499;;;;590477;242;24160;-75
2022/12/03 10:54:51;;;;;;;66.27;34.67;;;-1.60;99.90;-2.70;101491;;;;583467;242;24120;-75
2022/12/03 10:57:19;;;;;;;71.67;37.27;;;-1.60;99.90;-2.70;101498;;;;584511;242;24048;-74
2022/12/03 10:59:47;;;;;;;68.93;34.77;;;-1.60;99.90;-2.60;101497;;;;584372;242;24088;-75
2022/12/03 11:02:21;;;;;;;68.20;36.03;;;-1.50;99.90;-2.60;101500;;;;584383;242;26184;-75
2022/12/03 11:04:48;;;;;;;64.93;37.57;;;-1.50;99.90;-2.60;101495;;;;592098;242;25097;-76
2022/12/03 11:07:19;;;;;;;72.23;36.93;;;-1.50;99.90;-2.60;101484;;;;592299;242;24045;-76
2022/12/03 11:09:50;;;;;;;69.67;33.57;;;-1.40;99.90;-2.60;101484;;;;592233;242;24047;-75
2022/12/03 11:12:19;;;;;;;70.60;37.03;;;-1.40;99.90;-2.60;101487;;;;584105;242;24112;-78
2022/12/03 11:14:53;;;;;;;70.83;35.97;;;-1.40;99.90;-2.50;101485;;;;591519;242;24082;-75
2022/12/03 11:17:42;;;;;;;72.97;38.13;;;-1.40;99.90;-2.60;101480;;;;583862;242;24109;-75
2022/12/03 11:20:11;;;;;;;83.90;44.70;;;-1.40;99.90;-2.60;101482;;;;587965;242;35208;-79
2022/12/03 11:22:45;;;;;;;68.43;36.67;;;-1.40;99.90;-2.60;101478;;;;584398;241;24078;-81
2022/12/03 11:25:26;;;;;;;65.97;37.97;;;-1.50;99.90;-2.60;101482;;;;592093;242;24071;-79
2022/12/03 11:28:12;;;;;;;66.93;35.83;;;-1.40;99.90;-2.50;101473;;;;584671;242;24075;-78